Time;durP1;ratioP1;P1;durP2;ratioP2;P2;SDS_P1;SDS_P2;PMS_P1;PMS_P2;Temp;Humidity;BMP_temperature;BMP_pressure;BME280_temperature;BME280_humidity;BME280_pressure;Samples;Min_cycle;Max_cycle;Signal;HPM_P1;HPM_P2
2021/08/11 00:23:51;;;;;;;7.70;3.78;;;16.90;99.90;;;;;;4952378;28;20443;-96
2021/08/11 00:27:39;;;;;;;11.88;3.97;;;16.80;99.90;;;;;;4895242;29;21056;-95
2021/08/11 04:19:06;;;;;;;7.53;4.13;;;15.10;99.90;;;;;;5368256;23;20420;-95
2021/08/11 04:44:14;;;;;;;;;;;;;;;;;;;;;
2021/08/11 04:54:24;;;;;;;9.80;4.00;;;15.40;99.90;;;;;;4768277;30;20444;-96
2021/08/11 05:14:10;;;;;;;;;;;;;;;;;;;;;
2021/08/11 06:27:36;;;;;;;6.65;3.50;;;18.70;99.90;;;;;;5516089;23;20444;-96
2021/08/11 06:30:08;;;;;;;8.02;3.67;;;19.30;99.90;;;;;;4960606;28;20451;-95
2021/08/11 06:32:36;;;;;;;7.70;3.70;;;19.50;99.90;;;;;;4961048;28;20456;-96
2021/08/11 06:35:04;;;;;;;7.15;3.63;;;20.00;99.90;;;;;;4960779;28;20432;-96
2021/08/11 06:37:43;;;;;;;6.40;3.40;;;20.60;99.90;;;;;;4962107;28;20428;-96
2021/08/11 06:40:12;;;;;;;7.55;3.38;;;21.50;99.90;;;;;;4962214;28;20745;-95
2021/08/11 06:42:39;;;;;;;5.45;3.30;;;21.00;99.90;;;;;;4962814;28;20515;-96
2021/08/11 06:45:07;;;;;;;6.75;3.00;;;20.30;99.90;;;;;;4962076;28;20435;-94
2021/08/11 06:47:36;;;;;;;6.45;3.60;;;19.70;99.90;;;;;;4960333;28;20499;-95
2021/08/11 06:50:05;;;;;;;7.57;3.35;;;19.90;99.90;;;;;;4961275;28;20439;-95
2021/08/11 06:52:35;;;;;;;5.22;2.95;;;21.00;99.90;;;;;;4960756;28;20486;-95
2021/08/11 06:55:07;;;;;;;7.07;3.13;;;21.80;99.90;;;;;;4960703;28;20925;-95
2021/08/11 06:57:52;;;;;;;6.15;3.30;;;22.20;99.90;;;;;;4961203;28;20429;-95
2021/08/11 07:00:24;;;;;;;4.72;3.20;;;22.60;99.90;;;;;;4962168;28;20947;-92
2021/08/11 07:02:51;;;;;;;6.70;3.30;;;22.30;99.90;;;;;;4960594;28;20931;-92
2021/08/11 07:05:19;;;;;;;6.18;3.25;;;21.80;99.90;;;;;;4961099;28;20492;-92
2021/08/11 07:07:46;;;;;;;6.72;3.40;;;21.30;99.90;;;;;;4961354;28;20428;-93
2021/08/11 07:10:14;;;;;;;8.43;3.97;;;20.70;99.90;;;;;;4961207;28;20440;-94
2021/08/11 07:12:43;;;;;;;7.07;3.72;;;20.70;99.90;;;;;;4960098;28;20420;-95
2021/08/11 07:15:11;;;;;;;6.18;3.45;;;20.20;99.90;;;;;;4959882;28;20427;-93
2021/08/11 07:17:56;;;;;;;8.73;3.97;;;20.00;99.90;;;;;;4960636;28;20421;-94
2021/08/11 07:20:25;;;;;;;6.35;3.80;;;20.10;99.90;;;;;;4962230;28;20427;-94
2021/08/11 07:22:55;;;;;;;7.22;3.92;;;20.20;99.90;;;;;;4961350;28;20548;-94
2021/08/11 07:25:23;;;;;;;8.15;3.97;;;20.40;99.90;;;;;;4962030;28;20428;-93
2021/08/11 07:27:50;;;;;;;8.60;3.65;;;20.60;99.90;;;;;;4947523;28;20430;-93
2021/08/11 07:30:17;;;;;;;8.07;3.92;;;20.60;99.90;;;;;;4961402;28;20437;-93
2021/08/11 07:32:45;;;;;;;6.47;3.92;;;20.60;99.90;;;;;;4961503;28;20428;-93
2021/08/11 07:35:13;;;;;;;8.73;3.60;;;20.40;99.90;;;;;;4960454;28;20428;-92
2021/08/11 07:37:56;;;;;;;10.30;4.03;;;20.50;99.90;;;;;;4970926;23;20494;-94
2021/08/11 07:40:26;;;;;;;6.53;3.60;;;20.40;99.90;;;;;;4960555;28;20431;-93
2021/08/11 07:42:58;;;;;;;8.82;3.88;;;20.40;99.90;;;;;;4961898;28;20527;-94
2021/08/11 07:45:29;;;;;;;6.57;3.80;;;20.60;99.90;;;;;;4960916;28;20837;-93
2021/08/11 07:48:10;;;;;;;6.88;4.20;;;20.60;99.90;;;;;;4978627;28;20415;-95
2021/08/11 07:50:49;;;;;;;26.67;4.43;;;20.80;99.90;;;;;;4978202;28;20436;-92
2021/08/11 07:53:16;;;;;;;6.30;3.78;;;20.80;99.90;;;;;;4960698;28;20454;-93
2021/08/11 07:55:43;;;;;;;5.37;3.60;;;20.90;99.90;;;;;;4960939;28;20451;-96
2021/08/11 07:58:10;;;;;;;7.67;3.70;;;20.50;99.90;;;;;;4961942;28;20428;-95
2021/08/11 08:00:37;;;;;;;33.10;5.22;;;20.20;99.90;;;;;;4960210;28;21005;-93
2021/08/11 08:03:06;;;;;;;10.60;3.83;;;20.30;99.90;;;;;;4962993;28;20502;-96
2021/08/11 08:05:35;;;;;;;8.13;3.90;;;20.40;99.90;;;;;;4960445;28;20970;-92
2021/08/11 08:08:07;;;;;;;8.20;4.10;;;20.20;99.90;;;;;;4964278;28;20441;-94
2021/08/11 08:10:36;;;;;;;6.65;3.88;;;20.10;99.90;;;;;;4959858;28;20440;-93
2021/08/11 08:13:04;;;;;;;8.68;3.90;;;20.10;99.90;;;;;;4958886;28;20424;-94
2021/08/11 08:15:31;;;;;;;7.43;4.30;;;20.10;99.90;;;;;;4959574;28;20523;-93
2021/08/11 08:17:58;;;;;;;6.80;3.80;;;20.20;99.90;;;;;;4958829;28;20425;-92
2021/08/11 08:20:25;;;;;;;8.43;3.47;;;20.30;99.90;;;;;;4958737;28;20441;-91
2021/08/11 08:22:53;;;;;;;11.70;3.73;;;20.20;99.90;;;;;;4978226;28;20962;-92
2021/08/11 08:25:22;;;;;;;6.38;3.30;;;20.10;99.90;;;;;;4958588;28;20444;-94
2021/08/11 08:27:51;;;;;;;6.25;3.30;;;20.10;99.90;;;;;;4958517;28;20428;-91
2021/08/11 08:30:39;;;;;;;5.43;3.43;;;20.20;99.90;;;;;;4961447;28;20408;-91
2021/08/11 08:33:06;;;;;;;6.60;3.20;;;20.30;99.90;;;;;;4958317;28;20431;-91
2021/08/11 08:35:33;;;;;;;6.45;3.40;;;20.30;99.90;;;;;;4958304;28;20443;-93
2021/08/11 08:38:04;;;;;;;6.93;3.20;;;20.30;99.90;;;;;;4959201;28;20436;-94
2021/08/11 08:40:34;;;;;;;7.20;3.50;;;20.20;99.90;;;;;;4958445;28;21015;-93
2021/08/11 08:43:03;;;;;;;8.63;3.73;;;20.20;99.90;;;;;;4961043;28;20420;-93
2021/08/11 08:45:30;;;;;;;7.25;3.55;;;20.40;99.90;;;;;;4957904;28;20419;-92
2021/08/11 08:48:02;;;;;;;5.53;3.60;;;20.50;99.90;;;;;;4957978;28;20520;-92
2021/08/11 08:50:29;;;;;;;6.82;3.25;;;20.60;99.90;;;;;;4957882;28;20954;-92
2021/08/11 08:52:56;;;;;;;7.72;3.28;;;20.50;99.90;;;;;;4958127;28;20506;-92
2021/08/11 08:55:24;;;;;;;6.27;3.70;;;20.50;99.90;;;;;;4959431;28;20511;-92
2021/08/11 08:57:52;;;;;;;6.80;3.63;;;20.50;99.90;;;;;;4958521;28;20521;-92
2021/08/11 09:00:20;;;;;;;6.20;3.28;;;20.70;99.90;;;;;;4958213;28;20424;-93
2021/08/11 09:02:47;;;;;;;5.82;3.17;;;20.90;99.90;;;;;;4958260;28;20506;-92
2021/08/11 09:05:16;;;;;;;7.00;2.92;;;20.90;99.90;;;;;;4959669;28;20463;-92
2021/08/11 09:07:48;;;;;;;7.23;3.23;;;21.10;99.90;;;;;;4959586;28;20424;-92
2021/08/11 09:10:22;;;;;;;5.82;3.55;;;21.00;99.90;;;;;;4958644;28;20432;-91
2021/08/11 09:13:07;;;;;;;7.57;3.30;;;21.20;99.90;;;;;;5045394;23;20436;-92
2021/08/11 09:15:43;;;;;;;7.78;3.20;;;21.20;99.90;;;;;;4967679;23;20436;-91
2021/08/11 09:18:19;;;;;;;6.68;3.38;;;21.20;99.90;;;;;;4958180;28;20428;-92
2021/08/11 09:21:10;;;;;;;10.25;3.28;;;21.30;99.90;;;;;;4959395;28;20424;-91
2021/08/11 09:23:43;;;;;;;9.35;3.42;;;21.60;99.90;;;;;;4959097;28;20440;-91
2021/08/11 09:26:12;;;;;;;9.82;3.70;;;21.50;99.90;;;;;;4958254;28;20444;-90
2021/08/11 09:28:44;;;;;;;7.95;3.60;;;21.60;99.90;;;;;;4960824;28;20498;-91
2021/08/11 09:31:31;;;;;;;6.07;3.60;;;21.60;99.90;;;;;;4980090;28;20428;-92
2021/08/11 09:34:00;;;;;;;6.10;3.20;;;21.60;99.90;;;;;;4962300;28;20432;-91
2021/08/11 09:36:42;;;;;;;7.53;3.30;;;21.60;99.90;;;;;;4959842;28;20460;-96
2021/08/11 09:39:09;;;;;;;12.38;3.20;;;21.50;99.90;;;;;;4964403;28;20741;-91
2021/08/11 09:42:03;;;;;;;8.83;3.30;;;21.40;99.90;;;;;;4965638;28;20439;-92
2021/08/11 09:44:35;;;;;;;7.00;3.22;;;21.40;99.90;;;;;;4945213;28;20435;-92
2021/08/11 09:47:18;;;;;;;11.20;3.15;;;21.40;99.90;;;;;;4961303;28;20436;-92
2021/08/11 09:50:05;;;;;;;6.03;2.70;;;21.60;99.90;;;;;;4960929;28;20428;-92
2021/08/11 09:52:49;;;;;;;8.15;3.13;;;21.70;99.90;;;;;;4961385;28;20486;-92
2021/08/11 09:55:18;;;;;;;5.07;2.90;;;21.80;99.90;;;;;;4962104;28;20450;-91
2021/08/11 09:57:46;;;;;;;5.95;3.15;;;22.10;99.90;;;;;;4960587;28;20436;-92
2021/08/11 10:00:14;;;;;;;5.68;2.92;;;22.40;99.90;;;;;;4960954;28;20427;-93
2021/08/11 10:02:42;;;;;;;5.57;3.08;;;22.50;99.90;;;;;;4960624;28;20446;-92
2021/08/11 10:05:36;;;;;;;6.78;3.00;;;22.30;99.90;;;;;;4960819;28;20479;-92
2021/08/11 10:08:05;;;;;;;6.05;3.20;;;22.10;99.90;;;;;;4964372;28;20440;-93
2021/08/11 10:10:52;;;;;;;5.97;3.45;;;21.80;99.90;;;;;;4961615;28;20791;-96
2021/08/11 10:13:23;;;;;;;6.63;3.10;;;21.70;99.90;;;;;;4962113;28;20919;-95
2021/08/11 10:15:51;;;;;;;5.85;2.83;;;21.80;99.90;;;;;;4960649;28;20511;-94
2021/08/11 10:18:26;;;;;;;5.40;3.03;;;22.00;99.90;;;;;;4961477;28;20424;-94
2021/08/11 10:21:00;;;;;;;6.65;3.33;;;22.20;99.90;;;;;;4961021;28;20435;-94
2021/08/11 10:23:29;;;;;;;4.60;2.67;;;22.30;99.90;;;;;;4962138;28;20440;-93
2021/08/11 10:25:56;;;;;;;7.15;2.80;;;22.20;99.90;;;;;;4960007;28;20425;-94
2021/08/11 10:28:25;;;;;;;4.57;3.00;;;22.30;99.90;;;;;;4961109;28;20452;-93
2021/08/11 10:30:52;;;;;;;7.40;3.10;;;22.30;99.90;;;;;;4961550;28;20483;-94
2021/08/11 10:33:22;;;;;;;6.38;2.65;;;22.40;99.90;;;;;;4960317;28;20908;-92
2021/08/11 10:35:49;;;;;;;4.25;2.50;;;22.50;99.90;;;;;;4960218;28;20462;-93
2021/08/11 10:38:18;;;;;;;3.83;2.55;;;22.20;99.90;;;;;;4960425;28;20946;-92
2021/08/11 10:40:53;;;;;;;4.22;2.55;;;22.20;99.90;;;;;;4960123;28;20459;-93
2021/08/11 10:43:21;;;;;;;4.35;2.75;;;22.20;99.90;;;;;;4960184;28;20450;-94
2021/08/11 10:46:00;;;;;;;6.00;2.72;;;22.40;99.90;;;;;;4960003;28;20424;-93
2021/08/11 10:48:27;;;;;;;4.43;3.05;;;22.50;99.90;;;;;;4959516;28;20439;-95
2021/08/11 10:50:55;;;;;;;4.95;3.17;;;22.60;99.90;;;;;;4961034;28;20456;-94
2021/08/11 10:53:22;;;;;;;3.78;2.83;;;22.70;99.90;;;;;;4960346;28;20924;-95
2021/08/11 10:55:51;;;;;;;6.60;3.00;;;22.80;99.90;;;;;;4960934;28;20431;-96
2021/08/11 10:58:40;;;;;;;7.18;3.10;;;23.00;99.90;;;;;;4961990;28;20764;-95
2021/08/11 11:01:34;;;;;;;7.88;3.08;;;23.10;99.90;;;;;;4961008;28;20511;-94
2021/08/11 11:04:03;;;;;;;3.72;2.63;;;23.10;99.90;;;;;;4961225;28;20440;-96
2021/08/11 11:06:51;;;;;;;9.10;2.40;;;23.20;99.90;;;;;;4963017;28;20427;-93
2021/08/11 11:09:21;;;;;;;6.70;2.58;;;23.30;99.90;;;;;;4964278;28;20432;-93
2021/08/11 11:12:36;;;;;;;6.93;2.73;;;23.60;99.90;;;;;;5012041;23;20463;-95
2021/08/11 11:19:59;;;;;;;4.85;2.20;;;23.30;99.90;;;;;;5189031;23;20436;-95
2021/08/11 11:22:53;;;;;;;4.32;2.17;;;23.50;99.90;;;;;;4981423;23;20420;-96
2021/08/11 11:25:52;;;;;;;3.58;2.28;;;23.60;99.90;;;;;;4975696;28;20416;-96
2021/08/11 11:28:20;;;;;;;2.92;2.10;;;23.30;99.90;;;;;;4984574;23;20448;-94
2021/08/11 11:30:48;;;;;;;5.15;2.05;;;23.00;99.90;;;;;;4984475;23;20440;-93
2021/08/11 11:33:24;;;;;;;5.85;2.20;;;22.70;99.90;;;;;;4985119;23;20440;-95
2021/08/11 11:36:26;;;;;;;4.85;2.00;;;22.70;99.90;;;;;;4980129;23;20429;-95
2021/08/11 11:39:42;;;;;;;3.20;1.92;;;23.20;99.90;;;;;;4958044;29;20413;-96
2021/08/11 11:42:34;;;;;;;3.70;1.73;;;23.60;99.90;;;;;;4979378;23;20410;-96
2021/08/11 11:45:45;;;;;;;4.72;1.90;;;23.90;99.90;;;;;;5030178;23;20451;-94
2021/08/11 11:48:12;;;;;;;4.55;1.70;;;23.70;99.90;;;;;;4976610;28;20439;-96
2021/08/11 11:51:17;;;;;;;3.10;1.90;;;23.70;99.90;;;;;;5000127;23;20408;-93
2021/08/11 11:53:44;;;;;;;4.15;1.80;;;23.80;99.90;;;;;;4974301;28;20404;-95
2021/08/11 11:56:50;;;;;;;3.88;1.60;;;24.00;99.90;;;;;;5083969;23;20867;-92
2021/08/11 11:59:19;;;;;;;2.33;1.70;;;24.30;98.70;;;;;;4981082;23;20458;-91
2021/08/11 12:02:04;;;;;;;2.63;1.50;;;24.10;98.80;;;;;;4990574;23;20419;-91
2021/08/11 12:05:14;;;;;;;3.70;1.73;;;23.80;98.70;;;;;;4907484;29;20427;-93
2021/08/11 12:07:41;;;;;;;3.38;1.58;;;24.20;99.80;;;;;;4882641;29;20431;-92
2021/08/11 12:10:09;;;;;;;2.88;1.50;;;24.70;99.20;;;;;;4886306;29;20445;-92
2021/08/11 12:12:36;;;;;;;3.38;1.60;;;24.80;99.10;;;;;;4886494;29;20441;-91
2021/08/11 12:15:17;;;;;;;3.83;1.53;;;24.50;96.00;;;;;;4883816;29;20435;-91
2021/08/11 12:17:45;;;;;;;3.15;1.55;;;24.60;96.60;;;;;;4883248;29;20458;-92
2021/08/11 12:20:35;;;;;;;1.97;1.50;;;24.60;96.70;;;;;;4887691;29;23122;-93
2021/08/11 12:23:32;;;;;;;4.45;1.63;;;25.00;97.20;;;;;;4908019;29;20427;-95
2021/08/11 12:26:19;;;;;;;5.53;1.80;;;25.30;95.80;;;;;;4887986;29;20498;-93
2021/08/11 12:29:23;;;;;;;3.42;1.63;;;25.10;95.60;;;;;;5048744;23;20436;-94
2021/08/11 12:32:04;;;;;;;3.30;1.48;;;24.80;95.30;;;;;;4943520;29;20433;-96
2021/08/11 12:34:34;;;;;;;2.72;1.60;;;24.70;96.80;;;;;;4940617;29;20460;-95
2021/08/11 12:37:04;;;;;;;4.07;1.70;;;24.80;94.80;;;;;;4940876;29;20508;-93
2021/08/11 12:39:36;;;;;;;4.15;1.60;;;25.00;94.80;;;;;;4958569;29;20444;-94
2021/08/11 12:42:04;;;;;;;2.08;1.60;;;25.40;94.90;;;;;;4925815;29;20501;-95
2021/08/11 12:44:32;;;;;;;3.95;1.50;;;25.40;93.00;;;;;;4945046;29;20517;-93
2021/08/11 12:47:00;;;;;;;3.88;1.45;;;25.30;96.20;;;;;;4945704;29;20438;-94
2021/08/11 12:49:30;;;;;;;2.05;1.55;;;25.40;93.70;;;;;;4943563;29;20433;-94
2021/08/11 12:52:05;;;;;;;3.95;1.60;;;25.40;93.20;;;;;;4944568;29;20432;-94
2021/08/11 12:54:59;;;;;;;5.97;1.70;;;25.50;93.30;;;;;;4957630;28;20416;-96
2021/08/11 12:57:46;;;;;;;3.58;1.80;;;25.60;93.90;;;;;;4951458;29;20429;-96
2021/08/11 13:00:19;;;;;;;3.90;1.50;;;26.30;95.50;;;;;;4939394;29;20437;-95
2021/08/11 13:02:47;;;;;;;3.37;1.73;;;27.10;93.90;;;;;;4940197;29;20454;-95
2021/08/11 13:05:17;;;;;;;3.28;1.70;;;27.50;92.00;;;;;;4943322;29;20434;-95
2021/08/11 13:07:56;;;;;;;3.80;1.77;;;27.50;92.00;;;;;;4940983;29;20425;-96
2021/08/11 13:10:30;;;;;;;2.13;1.60;;;27.30;92.00;;;;;;4961094;29;20957;-95
2021/08/11 13:12:58;;;;;;;5.05;1.60;;;27.60;90.60;;;;;;4951146;29;20765;-93
2021/08/11 13:15:34;;;;;;;5.00;1.97;;;27.70;91.20;;;;;;4948319;29;20496;-92
2021/08/11 13:18:06;;;;;;;3.83;1.73;;;27.90;92.00;;;;;;4947303;29;20426;-93
2021/08/11 13:20:46;;;;;;;2.72;1.65;;;27.60;90.50;;;;;;4944331;29;20426;-94
2021/08/11 13:23:13;;;;;;;6.22;1.80;;;27.60;90.00;;;;;;4954499;29;20445;-95
2021/08/11 13:25:44;;;;;;;7.43;1.70;;;27.70;90.30;;;;;;4945833;29;20429;-94
2021/08/11 13:28:12;;;;;;;2.50;1.60;;;27.60;92.70;;;;;;4943760;29;20445;-89
2021/08/11 13:30:40;;;;;;;6.97;1.70;;;28.00;89.20;;;;;;4944369;29;20416;-93
2021/08/11 13:33:07;;;;;;;5.20;1.83;;;28.20;86.60;;;;;;4942762;29;20441;-92
2021/08/11 13:35:37;;;;;;;5.28;1.45;;;28.20;84.50;;;;;;4941925;29;20542;-96
2021/08/11 13:38:07;;;;;;;3.65;1.40;;;28.10;83.70;;;;;;4945560;29;20445;-95
2021/08/11 13:40:36;;;;;;;3.88;1.77;;;27.90;83.70;;;;;;4943668;29;20484;-95
2021/08/11 13:43:04;;;;;;;3.22;1.50;;;27.70;86.40;;;;;;4949431;29;20441;-96
2021/08/11 13:45:38;;;;;;;1.90;1.40;;;27.60;85.30;;;;;;4945828;29;20454;-93
2021/08/11 13:48:06;;;;;;;2.43;1.37;;;27.50;82.80;;;;;;4943124;29;20547;-94
2021/08/11 13:50:33;;;;;;;3.17;1.70;;;27.50;82.70;;;;;;4941324;29;20493;-94
2021/08/11 13:53:00;;;;;;;2.75;1.60;;;27.80;87.50;;;;;;4941717;29;20484;-95
2021/08/11 13:55:27;;;;;;;3.35;1.40;;;28.00;86.90;;;;;;4941741;29;20430;-93
2021/08/11 13:57:54;;;;;;;2.60;1.70;;;28.00;82.70;;;;;;4941602;29;20437;-93
2021/08/11 14:00:22;;;;;;;2.03;1.50;;;28.00;82.30;;;;;;4941972;29;20456;-94
2021/08/11 14:02:49;;;;;;;2.30;1.42;;;28.20;85.30;;;;;;4942512;29;20433;-92
2021/08/11 14:05:17;;;;;;;2.17;1.30;;;28.70;81.40;;;;;;4943463;29;20430;-93
2021/08/11 14:07:44;;;;;;;4.13;1.48;;;28.90;85.40;;;;;;4942064;29;20429;-94
2021/08/11 14:10:11;;;;;;;3.90;1.60;;;29.20;82.00;;;;;;4942091;29;20437;-95
2021/08/11 14:12:39;;;;;;;2.45;1.30;;;29.10;77.20;;;;;;4943776;29;20454;-94
2021/08/11 14:15:07;;;;;;;2.30;1.47;;;28.90;77.90;;;;;;4943058;29;20425;-95
2021/08/11 14:17:35;;;;;;;1.75;1.35;;;28.90;78.10;;;;;;4941847;29;20852;-95
2021/08/11 14:20:03;;;;;;;2.65;1.50;;;28.90;79.10;;;;;;4943845;29;20711;-95
2021/08/11 14:22:36;;;;;;;2.20;1.53;;;28.60;77.30;;;;;;4945153;28;20430;-96
2021/08/11 14:25:18;;;;;;;4.97;1.50;;;28.50;77.30;;;;;;4875244;29;20457;-95
2021/08/11 14:27:45;;;;;;;2.58;1.45;;;28.40;75.40;;;;;;4866177;29;20433;-96
2021/08/11 14:30:16;;;;;;;3.00;1.50;;;28.40;74.50;;;;;;4868901;29;20440;-94
2021/08/11 14:32:49;;;;;;;2.40;1.55;;;28.40;76.40;;;;;;4871615;29;20428;-96
2021/08/11 14:35:22;;;;;;;5.88;1.90;;;28.10;75.40;;;;;;4872551;29;20519;-95
2021/08/11 14:40:25;;;;;;;2.47;1.80;;;27.70;79.50;;;;;;4949581;27;20431;-95
2021/08/11 14:42:52;;;;;;;4.00;1.75;;;27.90;76.60;;;;;;4925178;29;20503;-96
2021/08/11 14:45:34;;;;;;;3.33;1.77;;;27.90;75.50;;;;;;5154560;23;20808;-89
2021/08/11 14:48:02;;;;;;;2.72;1.70;;;28.10;75.20;;;;;;4962353;28;20424;-96
2021/08/11 14:50:37;;;;;;;5.50;1.85;;;28.40;78.20;;;;;;4964105;28;20424;-96
2021/08/11 14:53:30;;;;;;;2.90;1.50;;;28.50;75.00;;;;;;4983583;28;20451;-96
2021/08/11 14:56:04;;;;;;;3.35;1.67;;;28.80;76.30;;;;;;4971749;28;20436;-96
2021/08/11 14:58:40;;;;;;;4.45;1.85;;;28.70;74.70;;;;;;4970519;28;20420;-96
2021/08/11 15:01:09;;;;;;;3.35;1.77;;;28.90;75.00;;;;;;5078712;23;20496;-92
2021/08/11 15:09:42;;;;;;;5.47;1.90;;;28.60;71.60;;;;;;910881;23;20637;-95
2021/08/11 15:12:18;;;;;;;3.25;1.90;;;28.10;74.90;;;;;;4925115;29;20465;-96
2021/08/11 15:14:45;;;;;;;3.03;1.88;;;28.00;76.80;;;;;;4917722;29;20423;-96
2021/08/11 15:17:16;;;;;;;3.03;1.80;;;27.80;74.10;;;;;;4914594;29;20465;-95
2021/08/11 15:19:47;;;;;;;4.22;1.90;;;28.00;75.60;;;;;;4920853;29;20424;-96
2021/08/11 15:22:29;;;;;;;2.60;1.90;;;28.30;76.20;;;;;;4920888;29;20462;-94
2021/08/11 15:25:31;;;;;;;2.95;1.75;;;28.40;73.20;;;;;;5026438;23;20443;-96
2021/08/11 15:28:22;;;;;;;5.20;2.00;;;28.10;75.00;;;;;;5021302;23;20450;-96
2021/08/11 15:31:42;;;;;;;4.63;2.05;;;28.00;73.40;;;;;;4942189;29;20465;-96
2021/08/11 15:34:35;;;;;;;3.30;1.90;;;28.00;73.70;;;;;;4949352;29;20486;-96
2021/08/11 15:37:02;;;;;;;3.30;1.95;;;28.00;71.30;;;;;;4950206;29;20431;-96
2021/08/11 15:39:32;;;;;;;4.15;2.00;;;28.10;74.50;;;;;;4960415;23;20425;-95
2021/08/11 15:42:03;;;;;;;3.85;1.85;;;28.10;73.70;;;;;;4996958;23;20468;-96
2021/08/11 15:44:30;;;;;;;3.83;2.08;;;28.10;75.20;;;;;;4973706;28;20466;-96
2021/08/11 15:47:25;;;;;;;2.92;2.03;;;27.90;72.10;;;;;;4633822;23;21807;-94
2021/08/11 15:49:58;;;;;;;5.72;2.13;;;27.80;78.10;;;;;;4946538;29;20451;-95
2021/08/11 15:52:25;;;;;;;3.33;2.00;;;28.20;76.40;;;;;;5076439;23;20407;-96
2021/08/11 15:55:04;;;;;;;5.07;2.45;;;28.20;71.90;;;;;;4947042;29;20815;-96
2021/08/11 15:57:31;;;;;;;3.67;2.10;;;28.20;73.10;;;;;;4942476;29;20477;-92
2021/08/11 15:59:58;;;;;;;3.33;2.05;;;27.80;72.60;;;;;;4939574;29;20433;-92
2021/08/11 16:02:25;;;;;;;4.57;2.20;;;27.50;72.50;;;;;;4939525;29;20429;-96
2021/08/11 16:04:53;;;;;;;7.00;2.13;;;27.40;74.80;;;;;;4939804;29;20801;-95
2021/08/11 16:07:20;;;;;;;3.53;2.30;;;27.30;74.20;;;;;;4939973;29;20453;-96
2021/08/11 16:09:47;;;;;;;4.28;2.13;;;27.20;75.20;;;;;;4940391;29;20434;-96
2021/08/11 16:12:14;;;;;;;4.72;2.25;;;26.80;75.00;;;;;;4951002;29;20426;-94
2021/08/11 16:14:41;;;;;;;3.97;2.30;;;26.60;79.10;;;;;;4964581;23;20790;-93
2021/08/11 16:17:08;;;;;;;3.65;2.30;;;26.30;77.10;;;;;;4943969;29;20430;-95
2021/08/11 16:19:37;;;;;;;4.00;2.27;;;25.70;77.50;;;;;;4962662;28;20436;-93
2021/08/11 16:22:04;;;;;;;6.70;2.30;;;25.20;79.30;;;;;;4957123;28;20413;-94
2021/08/11 16:24:31;;;;;;;5.47;2.17;;;24.70;81.30;;;;;;4944937;28;20441;-95
2021/08/11 16:26:59;;;;;;;4.57;2.30;;;24.50;86.80;;;;;;4963937;23;20410;-94
2021/08/11 16:29:26;;;;;;;5.60;2.40;;;24.60;82.50;;;;;;4974648;23;20416;-94
2021/08/11 16:31:57;;;;;;;5.60;2.30;;;24.80;84.80;;;;;;4985170;23;20447;-94
2021/08/11 16:34:27;;;;;;;3.80;2.30;;;25.00;84.10;;;;;;4966671;23;20417;-94
2021/08/11 16:36:54;;;;;;;6.05;2.40;;;25.40;85.00;;;;;;4975905;23;20440;-95
2021/08/11 16:39:22;;;;;;;7.38;2.45;;;26.00;83.20;;;;;;4965541;23;20524;-94
2021/08/11 16:41:49;;;;;;;4.47;2.33;;;26.60;82.30;;;;;;4949238;28;20437;-95
2021/08/11 16:44:16;;;;;;;3.22;2.40;;;27.00;81.60;;;;;;4943921;29;20950;-96
2021/08/11 16:46:46;;;;;;;4.67;2.23;;;27.20;79.20;;;;;;4949332;29;20410;-95
2021/08/11 16:49:13;;;;;;;5.82;2.30;;;27.40;79.90;;;;;;4952313;29;20785;-96
2021/08/11 16:51:42;;;;;;;7.20;2.40;;;27.50;77.10;;;;;;4952663;29;20492;-92
2021/08/11 16:54:09;;;;;;;4.30;2.33;;;27.30;77.30;;;;;;4950568;29;20945;-96
2021/08/11 16:56:36;;;;;;;5.68;2.30;;;27.10;77.60;;;;;;4949200;29;20440;-94
2021/08/11 16:59:04;;;;;;;9.23;2.50;;;26.80;77.70;;;;;;4951734;29;20438;-95
2021/08/11 17:01:33;;;;;;;5.57;2.33;;;26.60;79.20;;;;;;4968230;23;20443;-93
2021/08/11 17:04:00;;;;;;;5.47;2.40;;;26.60;78.40;;;;;;4974883;28;20432;-93
2021/08/11 17:06:28;;;;;;;6.03;2.20;;;26.60;80.10;;;;;;4985432;23;20466;-92
2021/08/11 17:08:55;;;;;;;5.57;2.35;;;26.20;82.20;;;;;;4978057;28;20428;-92
2021/08/11 17:11:22;;;;;;;5.28;2.65;;;25.90;84.50;;;;;;4984264;23;20471;-94
2021/08/11 17:13:49;;;;;;;4.80;2.38;;;25.60;84.00;;;;;;4983552;23;20516;-93
2021/08/11 17:16:33;;;;;;;5.95;2.42;;;25.20;82.20;;;;;;4978011;28;20419;-93
2021/08/11 17:19:00;;;;;;;6.85;2.38;;;24.70;86.50;;;;;;4977678;28;20423;-92
2021/08/11 17:21:29;;;;;;;8.60;2.55;;;24.20;85.40;;;;;;4976957;28;20462;-94
2021/08/11 17:23:56;;;;;;;6.03;2.50;;;23.80;90.30;;;;;;4984261;23;20440;-91
2021/08/11 17:26:23;;;;;;;5.77;2.50;;;23.60;90.70;;;;;;4983647;23;20412;-92
2021/08/11 17:28:55;;;;;;;9.40;2.90;;;23.50;90.30;;;;;;4985177;23;20412;-92
2021/08/11 17:31:30;;;;;;;7.60;2.45;;;23.40;88.70;;;;;;4998672;23;20428;-92
2021/08/11 17:33:58;;;;;;;5.82;3.05;;;23.20;91.70;;;;;;4963236;28;20491;-96
2021/08/11 17:36:25;;;;;;;8.95;2.75;;;23.00;92.90;;;;;;4963632;28;21018;-96
2021/08/11 17:38:52;;;;;;;5.70;2.72;;;22.70;93.10;;;;;;4962253;28;20424;-96
2021/08/11 17:41:20;;;;;;;4.95;2.60;;;22.60;93.10;;;;;;4961423;28;20432;-96
2021/08/11 17:43:47;;;;;;;6.93;2.80;;;22.40;93.30;;;;;;4961699;28;20765;-96
2021/08/11 17:46:14;;;;;;;3.70;2.50;;;22.10;94.70;;;;;;4962274;28;20420;-96
2021/08/11 17:48:41;;;;;;;5.47;3.00;;;21.60;95.30;;;;;;4961346;28;20510;-96
2021/08/11 17:51:08;;;;;;;8.50;2.93;;;21.20;96.10;;;;;;4962512;28;20436;-95
2021/08/11 17:53:36;;;;;;;3.95;2.78;;;20.70;97.00;;;;;;4962414;28;20428;-96
2021/08/11 17:56:03;;;;;;;6.73;3.10;;;20.40;98.60;;;;;;4961916;28;20424;-96
2021/08/11 17:58:30;;;;;;;7.00;2.97;;;20.10;99.40;;;;;;4975904;23;20424;-93
2021/08/11 18:01:00;;;;;;;8.35;2.83;;;19.80;99.90;;;;;;5018169;23;20457;-94
2021/08/11 18:03:45;;;;;;;6.00;3.17;;;19.70;99.90;;;;;;4964754;29;20429;-93
